sensor_id;sensor_type;location;lat;lon;timestamp;temperature;humidity
11965;DHT22;6042;41.326;19.826;2024-02-15T00:00:13;5.10;99.90
11965;DHT22;6042;41.326;19.826;2024-02-15T00:02:42;5.00;99.90
11965;DHT22;6042;41.326;19.826;2024-02-15T00:05:12;5.00;99.90
11965;DHT22;6042;41.326;19.826;2024-02-15T00:07:41;4.90;99.90
11965;DHT22;6042;41.326;19.826;2024-02-15T00:10:11;4.90;99.90
11965;DHT22;6042;41.326;19.826;2024-02-15T00:12:43;4.90;99.90
11965;DHT22;6042;41.326;19.826;2024-02-15T00:15:13;4.90;99.90
11965;DHT22;6042;41.326;19.826;2024-02-15T00:17:41;5.00;99.90
11965;DHT22;6042;41.326;19.826;2024-02-15T00:20:11;5.00;99.90
11965;DHT22;6042;41.326;19.826;2024-02-15T00:22:41;5.00;99.90
11965;DHT22;6042;41.326;19.826;2024-02-15T00:25:10;5.10;99.90
11965;DHT22;6042;41.326;19.826;2024-02-15T00:27:42;5.00;99.90
11965;DHT22;6042;41.326;19.826;2024-02-15T00:30:11;4.90;99.90
11965;DHT22;6042;41.326;19.826;2024-02-15T00:32:40;4.80;99.90
11965;DHT22;6042;41.326;19.826;2024-02-15T00:35:09;4.70;99.90
11965;DHT22;6042;41.326;19.826;2024-02-15T00:37:40;4.60;99.90
11965;DHT22;6042;41.326;19.826;2024-02-15T00:40:09;4.70;99.90
11965;DHT22;6042;41.326;19.826;2024-02-15T00:42:38;4.70;99.90
11965;DHT22;6042;41.326;19.826;2024-02-15T00:45:08;5.00;99.90
11965;DHT22;6042;41.326;19.826;2024-02-15T00:47:37;5.20;99.90
11965;DHT22;6042;41.326;19.826;2024-02-15T00:50:09;5.00;99.90
11965;DHT22;6042;41.326;19.826;2024-02-15T00:52:38;4.70;99.90
11965;DHT22;6042;41.326;19.826;2024-02-15T00:55:07;4.90;99.90
11965;DHT22;6042;41.326;19.826;2024-02-15T00:57:36;5.00;99.90
11965;DHT22;6042;41.326;19.826;2024-02-15T01:00:08;5.00;99.90
11965;DHT22;6042;41.326;19.826;2024-02-15T01:02:37;5.10;99.90
11965;DHT22;6042;41.326;19.826;2024-02-15T01:05:06;5.10;99.90
11965;DHT22;6042;41.326;19.826;2024-02-15T01:07:38;5.10;99.90
11965;DHT22;6042;41.326;19.826;2024-02-15T01:10:08;5.20;99.90
11965;DHT22;6042;41.326;19.826;2024-02-15T01:12:36;5.20;99.90
11965;DHT22;6042;41.326;19.826;2024-02-15T01:15:09;5.10;99.90
11965;DHT22;6042;41.326;19.826;2024-02-15T01:17:40;5.00;99.90
11965;DHT22;6042;41.326;19.826;2024-02-15T01:20:10;5.00;99.90
11965;DHT22;6042;41.326;19.826;2024-02-15T01:22:39;5.00;99.90
11965;DHT22;6042;41.326;19.826;2024-02-15T01:25:07;5.00;99.90
11965;DHT22;6042;41.326;19.826;2024-02-15T01:27:38;4.90;99.90
11965;DHT22;6042;41.326;19.826;2024-02-15T01:30:11;4.80;99.90
11965;DHT22;6042;41.326;19.826;2024-02-15T01:32:42;4.70;99.90
11965;DHT22;6042;41.326;19.826;2024-02-15T01:35:11;4.80;99.90
11965;DHT22;6042;41.326;19.826;2024-02-15T01:37:40;4.70;99.90
11965;DHT22;6042;41.326;19.826;2024-02-15T01:40:09;4.70;99.90
11965;DHT22;6042;41.326;19.826;2024-02-15T01:42:41;4.70;99.90
11965;DHT22;6042;41.326;19.826;2024-02-15T01:45:11;4.60;99.90
11965;DHT22;6042;41.326;19.826;2024-02-15T01:47:40;4.50;99.90
11965;DHT22;6042;41.326;19.826;2024-02-15T01:50:11;4.30;99.90
11965;DHT22;6042;41.326;19.826;2024-02-15T01:52:41;4.30;99.90
11965;DHT22;6042;41.326;19.826;2024-02-15T01:55:12;4.30;99.90
11965;DHT22;6042;41.326;19.826;2024-02-15T01:57:44;4.50;99.90
11965;DHT22;6042;41.326;19.826;2024-02-15T02:00:16;4.60;99.90
11965;DHT22;6042;41.326;19.826;2024-02-15T02:02:45;4.60;99.90
11965;DHT22;6042;41.326;19.826;2024-02-15T02:05:14;4.40;99.90
11965;DHT22;6042;41.326;19.826;2024-02-15T02:07:43;4.50;99.90
11965;DHT22;6042;41.326;19.826;2024-02-15T02:10:12;4.50;99.90
11965;DHT22;6042;41.326;19.826;2024-02-15T02:12:41;4.40;99.90
11965;DHT22;6042;41.326;19.826;2024-02-15T02:15:10;4.30;99.90
11965;DHT22;6042;41.326;19.826;2024-02-15T02:17:42;4.30;99.90
11965;DHT22;6042;41.326;19.826;2024-02-15T02:20:11;4.20;99.90
11965;DHT22;6042;41.326;19.826;2024-02-15T02:22:46;4.20;99.90
11965;DHT22;6042;41.326;19.826;2024-02-15T02:25:19;4.30;99.90
11965;DHT22;6042;41.326;19.826;2024-02-15T02:27:48;4.30;99.90
11965;DHT22;6042;41.326;19.826;2024-02-15T02:30:17;4.40;99.90
11965;DHT22;6042;41.326;19.826;2024-02-15T02:32:46;4.30;99.90
11965;DHT22;6042;41.326;19.826;2024-02-15T02:35:17;4.40;99.90
11965;DHT22;6042;41.326;19.826;2024-02-15T02:37:47;4.50;99.90
11965;DHT22;6042;41.326;19.826;2024-02-15T02:40:16;4.60;99.90
11965;DHT22;6042;41.326;19.826;2024-02-15T02:42:50;4.60;99.90
11965;DHT22;6042;41.326;19.826;2024-02-15T02:45:19;4.70;99.90
11965;DHT22;6042;41.326;19.826;2024-02-15T02:47:51;4.60;99.90
11965;DHT22;6042;41.326;19.826;2024-02-15T02:50:21;4.70;99.90
11965;DHT22;6042;41.326;19.826;2024-02-15T02:52:53;4.70;99.90
11965;DHT22;6042;41.326;19.826;2024-02-15T02:55:22;4.70;99.90
11965;DHT22;6042;41.326;19.826;2024-02-15T02:57:55;4.70;99.90
11965;DHT22;6042;41.326;19.826;2024-02-15T03:00:25;4.70;99.90
11965;DHT22;6042;41.326;19.826;2024-02-15T03:02:55;4.70;99.90
11965;DHT22;6042;41.326;19.826;2024-02-15T03:05:27;4.80;99.90
11965;DHT22;6042;41.326;19.826;2024-02-15T03:07:57;4.80;99.90
11965;DHT22;6042;41.326;19.826;2024-02-15T03:10:26;4.80;99.90
11965;DHT22;6042;41.326;19.826;2024-02-15T03:12:56;4.80;99.90
11965;DHT22;6042;41.326;19.826;2024-02-15T03:15:24;4.90;99.90
11965;DHT22;6042;41.326;19.826;2024-02-15T03:17:54;4.50;99.90
11965;DHT22;6042;41.326;19.826;2024-02-15T03:20:23;4.40;99.90
11965;DHT22;6042;41.326;19.826;2024-02-15T03:22:53;4.40;99.90
11965;DHT22;6042;41.326;19.826;2024-02-15T03:25:22;4.40;99.90
11965;DHT22;6042;41.326;19.826;2024-02-15T03:27:56;4.60;99.90
11965;DHT22;6042;41.326;19.826;2024-02-15T03:30:27;4.60;99.90
11965;DHT22;6042;41.326;19.826;2024-02-15T03:32:58;4.70;99.90
11965;DHT22;6042;41.326;19.826;2024-02-15T03:35:27;4.70;99.90
11965;DHT22;6042;41.326;19.826;2024-02-15T03:37:59;4.60;99.90
11965;DHT22;6042;41.326;19.826;2024-02-15T03:40:28;4.70;99.90
11965;DHT22;6042;41.326;19.826;2024-02-15T03:42:59;4.70;99.90
11965;DHT22;6042;41.326;19.826;2024-02-15T03:45:28;4.40;99.90
11965;DHT22;6042;41.326;19.826;2024-02-15T03:48:01;4.40;99.90
11965;DHT22;6042;41.326;19.826;2024-02-15T03:50:32;4.30;99.90
11965;DHT22;6042;41.326;19.826;2024-02-15T03:53:01;4.20;99.90
11965;DHT22;6042;41.326;19.826;2024-02-15T03:55:30;4.20;99.90
11965;DHT22;6042;41.326;19.826;2024-02-15T03:58:02;3.90;99.90
11965;DHT22;6042;41.326;19.826;2024-02-15T04:00:30;4.00;99.90
11965;DHT22;6042;41.326;19.826;2024-02-15T04:02:59;4.10;99.90
11965;DHT22;6042;41.326;19.826;2024-02-15T04:05:28;4.00;99.90
11965;DHT22;6042;41.326;19.826;2024-02-15T04:07:56;4.10;99.90
11965;DHT22;6042;41.326;19.826;2024-02-15T04:10:26;4.00;99.90
11965;DHT22;6042;41.326;19.826;2024-02-15T04:12:54;3.90;99.90
11965;DHT22;6042;41.326;19.826;2024-02-15T04:15:26;3.80;99.90
11965;DHT22;6042;41.326;19.826;2024-02-15T04:17:55;3.80;99.90
11965;DHT22;6042;41.326;19.826;2024-02-15T04:20:24;3.80;99.90
11965;DHT22;6042;41.326;19.826;2024-02-15T04:22:53;3.80;99.90
11965;DHT22;6042;41.326;19.826;2024-02-15T04:25:24;3.90;99.90
11965;DHT22;6042;41.326;19.826;2024-02-15T04:27:55;3.80;99.90
11965;DHT22;6042;41.326;19.826;2024-02-15T04:30:26;3.50;99.90
11965;DHT22;6042;41.326;19.826;2024-02-15T04:32:54;3.40;99.90
11965;DHT22;6042;41.326;19.826;2024-02-15T04:35:23;3.40;99.90
11965;DHT22;6042;41.326;19.826;2024-02-15T04:37:55;3.40;99.90
11965;DHT22;6042;41.326;19.826;2024-02-15T04:40:23;3.40;99.90
11965;DHT22;6042;41.326;19.826;2024-02-15T04:42:52;3.40;99.90
11965;DHT22;6042;41.326;19.826;2024-02-15T04:45:21;3.40;99.90
11965;DHT22;6042;41.326;19.826;2024-02-15T04:47:51;3.50;99.90
11965;DHT22;6042;41.326;19.826;2024-02-15T04:50:21;3.50;99.90
11965;DHT22;6042;41.326;19.826;2024-02-15T04:52:49;3.60;99.90
11965;DHT22;6042;41.326;19.826;2024-02-15T04:55:18;3.60;99.90
11965;DHT22;6042;41.326;19.826;2024-02-15T04:57:47;3.50;99.90
11965;DHT22;6042;41.326;19.826;2024-02-15T05:00:16;3.50;99.90
11965;DHT22;6042;41.326;19.826;2024-02-15T05:02:51;3.50;99.90
11965;DHT22;6042;41.326;19.826;2024-02-15T05:05:20;3.50;99.90
11965;DHT22;6042;41.326;19.826;2024-02-15T05:07:50;3.40;99.90
11965;DHT22;6042;41.326;19.826;2024-02-15T05:10:19;3.30;99.90
11965;DHT22;6042;41.326;19.826;2024-02-15T05:12:47;3.30;99.90
11965;DHT22;6042;41.326;19.826;2024-02-15T05:15:16;3.30;99.90
11965;DHT22;6042;41.326;19.826;2024-02-15T05:17:46;3.30;99.90
11965;DHT22;6042;41.326;19.826;2024-02-15T05:20:18;3.40;99.90
11965;DHT22;6042;41.326;19.826;2024-02-15T05:22:48;3.40;99.90
11965;DHT22;6042;41.326;19.826;2024-02-15T05:25:17;3.30;99.90
11965;DHT22;6042;41.326;19.826;2024-02-15T05:27:52;3.30;99.90
11965;DHT22;6042;41.326;19.826;2024-02-15T05:30:24;3.30;99.90
11965;DHT22;6042;41.326;19.826;2024-02-15T05:32:53;3.30;99.90
11965;DHT22;6042;41.326;19.826;2024-02-15T05:35:24;3.30;99.90
11965;DHT22;6042;41.326;19.826;2024-02-15T05:37:56;3.40;99.90
11965;DHT22;6042;41.326;19.826;2024-02-15T05:40:24;3.40;99.90
11965;DHT22;6042;41.326;19.826;2024-02-15T05:42:57;3.50;99.90
11965;DHT22;6042;41.326;19.826;2024-02-15T05:45:30;3.10;99.90
11965;DHT22;6042;41.326;19.826;2024-02-15T05:48:02;3.10;99.90
11965;DHT22;6042;41.326;19.826;2024-02-15T05:50:35;3.20;99.90
11965;DHT22;6042;41.326;19.826;2024-02-15T05:53:03;3.30;99.90
11965;DHT22;6042;41.326;19.826;2024-02-15T05:55:35;3.20;99.90
11965;DHT22;6042;41.326;19.826;2024-02-15T05:58:08;3.10;99.90
11965;DHT22;6042;41.326;19.826;2024-02-15T06:00:43;3.20;99.90
11965;DHT22;6042;41.326;19.826;2024-02-15T06:03:18;3.40;99.90
11965;DHT22;6042;41.326;19.826;2024-02-15T06:05:50;3.50;99.90
11965;DHT22;6042;41.326;19.826;2024-02-15T06:08:19;3.60;99.90
11965;DHT22;6042;41.326;19.826;2024-02-15T06:10:51;3.60;99.90
11965;DHT22;6042;41.326;19.826;2024-02-15T06:13:19;3.50;99.90
11965;DHT22;6042;41.326;19.826;2024-02-15T06:15:48;3.50;99.90
11965;DHT22;6042;41.326;19.826;2024-02-15T06:18:20;3.60;99.90
11965;DHT22;6042;41.326;19.826;2024-02-15T06:20:53;3.60;99.90
11965;DHT22;6042;41.326;19.826;2024-02-15T06:23:24;3.70;99.90
11965;DHT22;6042;41.326;19.826;2024-02-15T06:25:54;3.70;99.90
11965;DHT22;6042;41.326;19.826;2024-02-15T06:28:23;3.80;99.90
11965;DHT22;6042;41.326;19.826;2024-02-15T06:31:07;4.00;99.90
11965;DHT22;6042;41.326;19.826;2024-02-15T06:33:53;4.00;99.90
11965;DHT22;6042;41.326;19.826;2024-02-15T06:36:45;4.00;99.90
11965;DHT22;6042;41.326;19.826;2024-02-15T06:39:31;4.10;99.90
11965;DHT22;6042;41.326;19.826;2024-02-15T06:42:10;4.20;99.90
11965;DHT22;6042;41.326;19.826;2024-02-15T06:44:39;4.30;99.90
11965;DHT22;6042;41.326;19.826;2024-02-15T06:47:08;4.40;99.90
11965;DHT22;6042;41.326;19.826;2024-02-15T06:49:38;4.70;99.90
11965;DHT22;6042;41.326;19.826;2024-02-15T06:52:17;5.00;99.90
11965;DHT22;6042;41.326;19.826;2024-02-15T06:54:45;5.10;99.90
11965;DHT22;6042;41.326;19.826;2024-02-15T06:57:16;5.00;99.90
11965;DHT22;6042;41.326;19.826;2024-02-15T06:59:46;4.70;99.90
11965;DHT22;6042;41.326;19.826;2024-02-15T07:02:15;4.90;99.90
11965;DHT22;6042;41.326;19.826;2024-02-15T07:04:45;5.10;99.90
11965;DHT22;6042;41.326;19.826;2024-02-15T07:07:13;5.10;99.50
11965;DHT22;6042;41.326;19.826;2024-02-15T07:09:45;5.10;99.90
11965;DHT22;6042;41.326;19.826;2024-02-15T07:12:14;5.30;99.90
11965;DHT22;6042;41.326;19.826;2024-02-15T07:14:43;5.40;99.90
11965;DHT22;6042;41.326;19.826;2024-02-15T07:17:11;5.50;99.80
11965;DHT22;6042;41.326;19.826;2024-02-15T07:19:42;5.60;99.80
11965;DHT22;6042;41.326;19.826;2024-02-15T07:22:12;5.70;99.90
11965;DHT22;6042;41.326;19.826;2024-02-15T07:24:45;5.80;99.90
11965;DHT22;6042;41.326;19.826;2024-02-15T07:27:13;5.80;99.90
11965;DHT22;6042;41.326;19.826;2024-02-15T07:29:42;5.90;99.90
11965;DHT22;6042;41.326;19.826;2024-02-15T07:32:14;5.90;99.70
11965;DHT22;6042;41.326;19.826;2024-02-15T07:34:43;6.10;99.50
11965;DHT22;6042;41.326;19.826;2024-02-15T07:37:15;6.30;99.90
11965;DHT22;6042;41.326;19.826;2024-02-15T07:39:45;6.50;98.60
11965;DHT22;6042;41.326;19.826;2024-02-15T07:42:16;6.40;98.60
11965;DHT22;6042;41.326;19.826;2024-02-15T07:44:45;6.50;99.10
11965;DHT22;6042;41.326;19.826;2024-02-15T07:47:13;6.60;98.50
11965;DHT22;6042;41.326;19.826;2024-02-15T07:49:45;6.60;98.60
11965;DHT22;6042;41.326;19.826;2024-02-15T07:52:14;6.60;99.30
11965;DHT22;6042;41.326;19.826;2024-02-15T07:54:46;6.80;99.40
11965;DHT22;6042;41.326;19.826;2024-02-15T07:57:16;6.90;98.40
11965;DHT22;6042;41.326;19.826;2024-02-15T07:59:45;6.90;98.50
11965;DHT22;6042;41.326;19.826;2024-02-15T08:02:25;7.00;99.40
11965;DHT22;6042;41.326;19.826;2024-02-15T08:05:01;7.30;98.90
11965;DHT22;6042;41.326;19.826;2024-02-15T08:07:33;7.30;98.50
11965;DHT22;6042;41.326;19.826;2024-02-15T08:10:06;7.20;98.20
11965;DHT22;6042;41.326;19.826;2024-02-15T08:12:40;7.30;97.70
11965;DHT22;6042;41.326;19.826;2024-02-15T08:15:10;7.50;97.00
11965;DHT22;6042;41.326;19.826;2024-02-15T08:17:40;7.30;97.20
11965;DHT22;6042;41.326;19.826;2024-02-15T08:20:11;7.50;96.50
11965;DHT22;6042;41.326;19.826;2024-02-15T08:22:40;8.00;96.00
11965;DHT22;6042;41.326;19.826;2024-02-15T08:25:12;8.20;94.30
11965;DHT22;6042;41.326;19.826;2024-02-15T08:27:43;8.20;93.50
11965;DHT22;6042;41.326;19.826;2024-02-15T08:30:17;8.30;94.30
11965;DHT22;6042;41.326;19.826;2024-02-15T08:32:51;8.60;93.00
11965;DHT22;6042;41.326;19.826;2024-02-15T08:35:22;8.60;92.40
11965;DHT22;6042;41.326;19.826;2024-02-15T08:37:51;8.70;92.40
11965;DHT22;6042;41.326;19.826;2024-02-15T08:40:21;8.90;90.50
11965;DHT22;6042;41.326;19.826;2024-02-15T08:42:53;8.70;91.40
11965;DHT22;6042;41.326;19.826;2024-02-15T08:45:22;9.00;91.60
11965;DHT22;6042;41.326;19.826;2024-02-15T08:47:52;9.20;91.90
11965;DHT22;6042;41.326;19.826;2024-02-15T08:50:23;9.10;91.20
11965;DHT22;6042;41.326;19.826;2024-02-15T08:52:52;9.30;90.30
11965;DHT22;6042;41.326;19.826;2024-02-15T08:55:22;9.50;88.60
11965;DHT22;6042;41.326;19.826;2024-02-15T08:57:54;9.30;88.40
11965;DHT22;6042;41.326;19.826;2024-02-15T09:00:23;9.50;86.50
11965;DHT22;6042;41.326;19.826;2024-02-15T09:02:54;9.80;86.20
11965;DHT22;6042;41.326;19.826;2024-02-15T09:05:24;9.60;87.80
11965;DHT22;6042;41.326;19.826;2024-02-15T09:07:54;9.80;84.30
11965;DHT22;6042;41.326;19.826;2024-02-15T09:10:24;10.00;80.80
11965;DHT22;6042;41.326;19.826;2024-02-15T09:12:55;9.90;83.10
11965;DHT22;6042;41.326;19.826;2024-02-15T09:15:24;10.00;82.10
11965;DHT22;6042;41.326;19.826;2024-02-15T09:17:53;10.20;81.70
11965;DHT22;6042;41.326;19.826;2024-02-15T09:20:22;10.10;81.80
11965;DHT22;6042;41.326;19.826;2024-02-15T09:22:55;10.20;80.90
11965;DHT22;6042;41.326;19.826;2024-02-15T09:25:25;10.40;81.00
11965;DHT22;6042;41.326;19.826;2024-02-15T09:27:54;10.20;81.60
11965;DHT22;6042;41.326;19.826;2024-02-15T09:30:23;10.30;82.40
11965;DHT22;6042;41.326;19.826;2024-02-15T09:32:52;10.50;81.80
11965;DHT22;6042;41.326;19.826;2024-02-15T09:35:22;10.40;83.40
11965;DHT22;6042;41.326;19.826;2024-02-15T09:37:51;10.60;83.70
11965;DHT22;6042;41.326;19.826;2024-02-15T09:40:25;10.80;82.60
11965;DHT22;6042;41.326;19.826;2024-02-15T09:42:56;10.70;83.10
11965;DHT22;6042;41.326;19.826;2024-02-15T09:45:27;10.80;83.70
11965;DHT22;6042;41.326;19.826;2024-02-15T09:48:01;11.00;82.10
11965;DHT22;6042;41.326;19.826;2024-02-15T09:50:34;11.00;80.70
11965;DHT22;6042;41.326;19.826;2024-02-15T09:53:04;11.10;79.50
11965;DHT22;6042;41.326;19.826;2024-02-15T09:55:35;11.10;80.00
11965;DHT22;6042;41.326;19.826;2024-02-15T09:58:04;11.20;78.70
11965;DHT22;6042;41.326;19.826;2024-02-15T10:00:33;11.30;74.00
11965;DHT22;6042;41.326;19.826;2024-02-15T10:03:05;11.40;70.60
11965;DHT22;6042;41.326;19.826;2024-02-15T10:05:34;11.50;71.90
11965;DHT22;6042;41.326;19.826;2024-02-15T10:08:04;11.70;71.40
11965;DHT22;6042;41.326;19.826;2024-02-15T10:10:35;11.50;73.10
11965;DHT22;6042;41.326;19.826;2024-02-15T10:13:04;11.50;69.80
11965;DHT22;6042;41.326;19.826;2024-02-15T10:15:34;11.60;70.90
11965;DHT22;6042;41.326;19.826;2024-02-15T10:18:05;11.50;71.10
11965;DHT22;6042;41.326;19.826;2024-02-15T10:20:36;11.60;67.10
11965;DHT22;6042;41.326;19.826;2024-02-15T10:23:12;11.70;65.90
11965;DHT22;6042;41.326;19.826;2024-02-15T10:25:47;11.70;67.70
11965;DHT22;6042;41.326;19.826;2024-02-15T10:28:21;11.80;67.40
11965;DHT22;6042;41.326;19.826;2024-02-15T10:30:51;12.10;66.40
11965;DHT22;6042;41.326;19.826;2024-02-15T10:33:26;12.10;66.00
11965;DHT22;6042;41.326;19.826;2024-02-15T10:36:05;12.20;66.10
11965;DHT22;6042;41.326;19.826;2024-02-15T10:38:35;12.40;65.80
11965;DHT22;6042;41.326;19.826;2024-02-15T10:41:06;12.60;64.80
11965;DHT22;6042;41.326;19.826;2024-02-15T10:43:36;12.70;63.50
11965;DHT22;6042;41.326;19.826;2024-02-15T10:46:05;12.90;62.90
11965;DHT22;6042;41.326;19.826;2024-02-15T10:48:36;13.10;63.80
11965;DHT22;6042;41.326;19.826;2024-02-15T10:51:10;13.30;61.60
11965;DHT22;6042;41.326;19.826;2024-02-15T10:53:43;13.40;63.00
11965;DHT22;6042;41.326;19.826;2024-02-15T10:56:24;13.50;63.60
11965;DHT22;6042;41.326;19.826;2024-02-15T10:59:00;13.60;60.70
11965;DHT22;6042;41.326;19.826;2024-02-15T11:01:36;13.80;58.60
11965;DHT22;6042;41.326;19.826;2024-02-15T11:04:14;14.00;56.60
11965;DHT22;6042;41.326;19.826;2024-02-15T11:06:43;14.00;55.20
11965;DHT22;6042;41.326;19.826;2024-02-15T11:09:14;14.10;55.30
11965;DHT22;6042;41.326;19.826;2024-02-15T11:11:44;14.10;53.90
11965;DHT22;6042;41.326;19.826;2024-02-15T11:14:27;14.30;53.10
11965;DHT22;6042;41.326;19.826;2024-02-15T11:16:56;14.30;51.70
11965;DHT22;6042;41.326;19.826;2024-02-15T11:19:44;14.40;50.40
11965;DHT22;6042;41.326;19.826;2024-02-15T11:22:16;14.60;50.30
11965;DHT22;6042;41.326;19.826;2024-02-15T11:24:48;14.80;51.50
11965;DHT22;6042;41.326;19.826;2024-02-15T11:27:26;15.00;49.70
11965;DHT22;6042;41.326;19.826;2024-02-15T11:29:56;15.30;49.70
11965;DHT22;6042;41.326;19.826;2024-02-15T11:32:40;15.40;49.10
11965;DHT22;6042;41.326;19.826;2024-02-15T11:35:13;15.40;47.50
11965;DHT22;6042;41.326;19.826;2024-02-15T11:37:56;15.50;48.30
11965;DHT22;6042;41.326;19.826;2024-02-15T11:41:02;15.60;46.30
11965;DHT22;6042;41.326;19.826;2024-02-15T11:43:53;15.50;46.80
11965;DHT22;6042;41.326;19.826;2024-02-15T11:46:27;15.40;45.70
11965;DHT22;6042;41.326;19.826;2024-02-15T11:49:00;15.60;43.30
11965;DHT22;6042;41.326;19.826;2024-02-15T11:51:32;15.70;43.20
11965;DHT22;6042;41.326;19.826;2024-02-15T11:54:06;15.80;41.60
11965;DHT22;6042;41.326;19.826;2024-02-15T11:56:55;15.90;40.70
11965;DHT22;6042;41.326;19.826;2024-02-15T11:59:42;15.90;41.10
11965;DHT22;6042;41.326;19.826;2024-02-15T12:02:21;15.80;41.90
11965;DHT22;6042;41.326;19.826;2024-02-15T12:05:08;15.80;41.70
11965;DHT22;6042;41.326;19.826;2024-02-15T12:07:55;16.00;40.80
11965;DHT22;6042;41.326;19.826;2024-02-15T12:10:41;16.20;40.90
11965;DHT22;6042;41.326;19.826;2024-02-15T12:13:27;16.10;41.10
11965;DHT22;6042;41.326;19.826;2024-02-15T12:16:15;16.10;42.00
11965;DHT22;6042;41.326;19.826;2024-02-15T12:19:01;16.20;43.30
11965;DHT22;6042;41.326;19.826;2024-02-15T12:21:31;16.10;44.70
11965;DHT22;6042;41.326;19.826;2024-02-15T12:24:01;16.00;44.20
11965;DHT22;6042;41.326;19.826;2024-02-15T12:26:31;16.00;44.70
11965;DHT22;6042;41.326;19.826;2024-02-15T12:29:03;16.00;43.70
11965;DHT22;6042;41.326;19.826;2024-02-15T12:31:36;16.00;42.40
11965;DHT22;6042;41.326;19.826;2024-02-15T12:34:06;16.10;42.50
11965;DHT22;6042;41.326;19.826;2024-02-15T12:36:36;16.40;42.90
11965;DHT22;6042;41.326;19.826;2024-02-15T12:39:06;16.50;43.30
11965;DHT22;6042;41.326;19.826;2024-02-15T12:41:40;16.60;42.90
11965;DHT22;6042;41.326;19.826;2024-02-15T12:44:09;16.60;43.20
11965;DHT22;6042;41.326;19.826;2024-02-15T12:46:39;16.70;43.80
11965;DHT22;6042;41.326;19.826;2024-02-15T12:49:10;17.00;43.60
11965;DHT22;6042;41.326;19.826;2024-02-15T12:51:50;17.10;43.60
11965;DHT22;6042;41.326;19.826;2024-02-15T12:54:20;17.00;44.40
11965;DHT22;6042;41.326;19.826;2024-02-15T12:56:49;16.80;44.00
11965;DHT22;6042;41.326;19.826;2024-02-15T12:59:18;16.80;44.00
11965;DHT22;6042;41.326;19.826;2024-02-15T13:01:49;16.80;44.80
11965;DHT22;6042;41.326;19.826;2024-02-15T13:04:24;16.80;44.20
11965;DHT22;6042;41.326;19.826;2024-02-15T13:06:53;16.80;45.00
11965;DHT22;6042;41.326;19.826;2024-02-15T13:09:22;16.90;44.80
11965;DHT22;6042;41.326;19.826;2024-02-15T13:11:51;16.90;44.20
11965;DHT22;6042;41.326;19.826;2024-02-15T13:14:21;16.80;43.60
11965;DHT22;6042;41.326;19.826;2024-02-15T13:16:50;16.50;44.40
11965;DHT22;6042;41.326;19.826;2024-02-15T13:19:19;16.50;44.10
11965;DHT22;6042;41.326;19.826;2024-02-15T13:21:48;16.60;44.00
11965;DHT22;6042;41.326;19.826;2024-02-15T13:24:21;16.60;44.90
11965;DHT22;6042;41.326;19.826;2024-02-15T13:26:53;16.60;43.90
11965;DHT22;6042;41.326;19.826;2024-02-15T13:29:35;16.60;43.00
11965;DHT22;6042;41.326;19.826;2024-02-15T13:32:05;16.60;43.30
11965;DHT22;6042;41.326;19.826;2024-02-15T13:34:34;16.70;43.40
11965;DHT22;6042;41.326;19.826;2024-02-15T13:37:03;16.50;42.70
11965;DHT22;6042;41.326;19.826;2024-02-15T13:39:32;16.20;43.20
11965;DHT22;6042;41.326;19.826;2024-02-15T13:42:01;16.10;43.60
11965;DHT22;6042;41.326;19.826;2024-02-15T13:44:30;16.00;43.10
11965;DHT22;6042;41.326;19.826;2024-02-15T13:46:59;16.10;42.80
11965;DHT22;6042;41.326;19.826;2024-02-15T13:49:28;16.10;43.00
11965;DHT22;6042;41.326;19.826;2024-02-15T13:51:59;16.00;42.00
11965;DHT22;6042;41.326;19.826;2024-02-15T13:54:30;15.70;42.60
11965;DHT22;6042;41.326;19.826;2024-02-15T13:56:59;15.80;43.00
11965;DHT22;6042;41.326;19.826;2024-02-15T13:59:28;15.80;42.10
11965;DHT22;6042;41.326;19.826;2024-02-15T14:01:57;15.90;42.80
11965;DHT22;6042;41.326;19.826;2024-02-15T14:04:26;15.90;43.00
11965;DHT22;6042;41.326;19.826;2024-02-15T14:06:56;15.80;43.40
11965;DHT22;6042;41.326;19.826;2024-02-15T14:09:25;15.80;43.00
11965;DHT22;6042;41.326;19.826;2024-02-15T14:11:53;15.80;42.70
11965;DHT22;6042;41.326;19.826;2024-02-15T14:14:23;15.80;42.90
11965;DHT22;6042;41.326;19.826;2024-02-15T14:16:52;15.90;43.80
11965;DHT22;6042;41.326;19.826;2024-02-15T14:19:21;15.90;43.00
11965;DHT22;6042;41.326;19.826;2024-02-15T14:21:53;16.00;42.60
11965;DHT22;6042;41.326;19.826;2024-02-15T14:24:26;15.90;43.00
11965;DHT22;6042;41.326;19.826;2024-02-15T14:26:54;15.70;42.70
11965;DHT22;6042;41.326;19.826;2024-02-15T14:29:32;15.50;42.50
11965;DHT22;6042;41.326;19.826;2024-02-15T14:32:04;15.50;41.90
11965;DHT22;6042;41.326;19.826;2024-02-15T14:34:50;15.50;42.90
11965;DHT22;6042;41.326;19.826;2024-02-15T14:37:22;15.50;44.10
11965;DHT22;6042;41.326;19.826;2024-02-15T14:39:54;15.40;44.10
11965;DHT22;6042;41.326;19.826;2024-02-15T14:42:22;15.50;44.70
11965;DHT22;6042;41.326;19.826;2024-02-15T14:44:54;15.40;44.70
11965;DHT22;6042;41.326;19.826;2024-02-15T14:47:23;15.40;46.10
11965;DHT22;6042;41.326;19.826;2024-02-15T14:49:52;15.50;47.00
11965;DHT22;6042;41.326;19.826;2024-02-15T14:52:20;15.50;48.10
11965;DHT22;6042;41.326;19.826;2024-02-15T14:54:54;15.20;48.80
11965;DHT22;6042;41.326;19.826;2024-02-15T14:57:22;15.00;49.50
11965;DHT22;6042;41.326;19.826;2024-02-15T14:59:54;14.90;50.30
11965;DHT22;6042;41.326;19.826;2024-02-15T15:02:24;14.80;50.70
11965;DHT22;6042;41.326;19.826;2024-02-15T15:04:52;14.90;51.00
11965;DHT22;6042;41.326;19.826;2024-02-15T15:07:46;14.90;51.70
11965;DHT22;6042;41.326;19.826;2024-02-15T15:10:34;14.80;52.40
11965;DHT22;6042;41.326;19.826;2024-02-15T15:13:20;14.70;52.50
11965;DHT22;6042;41.326;19.826;2024-02-15T15:15:50;14.60;53.10
11965;DHT22;6042;41.326;19.826;2024-02-15T15:18:19;14.50;53.30
11965;DHT22;6042;41.326;19.826;2024-02-15T15:20:48;14.40;53.50
11965;DHT22;6042;41.326;19.826;2024-02-15T15:23:18;14.20;54.10
11965;DHT22;6042;41.326;19.826;2024-02-15T15:25:47;14.20;54.50
11965;DHT22;6042;41.326;19.826;2024-02-15T15:28:16;14.30;54.70
11965;DHT22;6042;41.326;19.826;2024-02-15T15:30:45;14.30;55.60
11965;DHT22;6042;41.326;19.826;2024-02-15T15:33:16;14.20;56.60
11965;DHT22;6042;41.326;19.826;2024-02-15T15:35:45;14.20;57.00
11965;DHT22;6042;41.326;19.826;2024-02-15T15:38:14;14.00;57.90
11965;DHT22;6042;41.326;19.826;2024-02-15T15:40:42;14.00;58.40
11965;DHT22;6042;41.326;19.826;2024-02-15T15:43:12;14.00;58.60
11965;DHT22;6042;41.326;19.826;2024-02-15T15:45:41;14.00;58.70
11965;DHT22;6042;41.326;19.826;2024-02-15T15:48:11;14.10;58.70
11965;DHT22;6042;41.326;19.826;2024-02-15T15:50:40;13.90;59.20
11965;DHT22;6042;41.326;19.826;2024-02-15T15:53:10;13.80;59.80
11965;DHT22;6042;41.326;19.826;2024-02-15T15:55:38;13.70;59.70
11965;DHT22;6042;41.326;19.826;2024-02-15T15:58:07;13.40;60.10
11965;DHT22;6042;41.326;19.826;2024-02-15T16:00:37;13.40;61.00
11965;DHT22;6042;41.326;19.826;2024-02-15T16:03:06;13.40;61.10
11965;DHT22;6042;41.326;19.826;2024-02-15T16:05:36;13.20;61.70